createdAt,value
2023-05-06T00:02:02.770Z,31.00
2023-05-06T00:04:32.027Z,31.10
2023-05-06T00:07:01.296Z,31.10
2023-05-06T00:09:30.460Z,31.10
2023-05-06T00:11:59.659Z,31.10
2023-05-06T00:14:28.993Z,31.20
2023-05-06T00:16:58.454Z,31.20
2023-05-06T00:19:28.342Z,31.20
2023-05-06T00:21:58.239Z,31.30
2023-05-06T00:24:27.462Z,31.30
2023-05-06T00:26:56.689Z,31.30
2023-05-06T00:29:25.966Z,31.30
2023-05-06T00:31:55.176Z,31.30
2023-05-06T00:34:24.381Z,31.30
2023-05-06T00:36:53.935Z,31.40
2023-05-06T00:39:23.413Z,31.40
2023-05-06T00:41:52.779Z,31.50
2023-05-06T00:44:21.995Z,31.50
2023-05-06T00:46:51.144Z,31.50
2023-05-06T00:49:21.065Z,31.60
2023-05-06T00:51:51.740Z,31.60
2023-05-06T00:54:21.444Z,31.60
2023-05-06T00:56:50.666Z,31.70
2023-05-06T00:59:20.841Z,31.70
2023-05-06T01:01:50.498Z,31.70
2023-05-06T01:04:19.710Z,31.70
2023-05-06T01:06:55.003Z,31.80
2023-05-06T01:09:55.623Z,31.90
2023-05-06T01:13:14.778Z,31.90
2023-05-06T01:15:48.623Z,32.00
2023-05-06T01:18:28.121Z,32.00
2023-05-06T01:20:58.439Z,32.10
2023-05-06T01:23:27.732Z,32.10
2023-05-06T01:25:57.214Z,32.20
2023-05-06T01:28:26.410Z,32.20
2023-05-06T01:31:06.603Z,32.30
2023-05-06T01:34:39.190Z,32.30
2023-05-06T01:37:23.806Z,32.40
2023-05-06T01:39:59.926Z,32.50
2023-05-06T01:42:32.216Z,32.60
2023-05-06T01:45:06.535Z,32.60
2023-05-06T01:47:38.907Z,32.70
2023-05-06T01:50:09.214Z,32.80
2023-05-06T01:52:38.582Z,32.80
2023-05-06T01:55:09.013Z,32.90
2023-05-06T01:57:38.601Z,33.00
2023-05-06T02:00:08.940Z,33.10
2023-05-06T02:02:38.444Z,33.20
2023-05-06T02:05:08.741Z,33.20
2023-05-06T02:07:38.174Z,33.30
2023-05-06T02:10:08.614Z,33.40
2023-05-06T02:12:37.828Z,33.50
2023-05-06T02:15:08.151Z,33.50
2023-05-06T02:17:39.705Z,33.60
2023-05-06T02:20:12.858Z,33.60
2023-05-06T02:22:42.156Z,33.70
2023-05-06T02:25:11.834Z,33.80
2023-05-06T02:27:41.316Z,33.90
2023-05-06T02:30:11.012Z,34.00
2023-05-06T02:32:40.270Z,34.00
2023-05-06T02:35:10.919Z,34.10
2023-05-06T02:37:40.788Z,34.20
2023-05-06T02:40:11.034Z,34.20
2023-05-06T02:42:40.367Z,34.40
2023-05-06T02:45:10.822Z,34.40
2023-05-06T02:47:40.380Z,34.50
2023-05-06T02:50:25.091Z,34.50
2023-05-06T02:52:54.353Z,34.60
2023-05-06T02:55:23.691Z,34.70
2023-05-06T02:57:52.897Z,34.70
2023-05-06T03:00:22.544Z,34.80
2023-05-06T03:02:51.811Z,34.90
2023-05-06T03:05:22.075Z,34.90
2023-05-06T03:07:51.425Z,35.00
2023-05-06T03:10:20.844Z,35.10
2023-05-06T03:12:50.196Z,35.10
2023-05-06T03:15:19.570Z,35.20
2023-05-06T03:17:49.409Z,35.30
2023-05-06T03:20:18.764Z,35.30
2023-05-06T03:22:48.042Z,35.40
2023-05-06T03:25:17.495Z,35.40
2023-05-06T03:27:46.759Z,35.50
2023-05-06T03:30:16.415Z,35.50
2023-05-06T03:32:45.971Z,35.60
2023-05-06T03:35:15.782Z,35.70
2023-05-06T03:37:45.077Z,35.80
2023-05-06T03:40:14.737Z,35.90
2023-05-06T03:42:47.171Z,35.90
2023-05-06T03:45:16.465Z,36.10
2023-05-06T03:47:45.849Z,36.00
2023-05-06T03:50:15.625Z,36.10
2023-05-06T03:52:45.299Z,36.20
2023-05-06T03:55:14.857Z,36.30
2023-05-06T03:57:44.185Z,36.30
2023-05-06T04:00:14.692Z,36.40
2023-05-06T04:02:44.469Z,36.50
2023-05-06T04:05:13.771Z,36.60
2023-05-06T04:07:43.011Z,36.70
2023-05-06T04:10:12.593Z,36.70
2023-05-06T04:12:42.105Z,36.90
2023-05-06T04:15:12.285Z,37.00
2023-05-06T04:17:41.963Z,37.00
2023-05-06T04:20:12.294Z,37.10
2023-05-06T04:22:41.790Z,37.20
2023-05-06T04:25:12.121Z,37.30
2023-05-06T04:27:41.685Z,37.40
2023-05-06T04:30:14.873Z,37.60
2023-05-06T04:32:44.440Z,37.70
2023-05-06T04:35:14.527Z,37.80
2023-05-06T04:37:44.510Z,37.80
2023-05-06T04:40:23.424Z,37.90
2023-05-06T04:42:53.090Z,38.10
2023-05-06T04:45:23.325Z,38.30
2023-05-06T04:47:53.510Z,38.40
2023-05-06T04:50:22.769Z,38.50
2023-05-06T04:52:52.291Z,38.70
2023-05-06T04:55:24.720Z,38.70
2023-05-06T04:57:53.927Z,38.80
2023-05-06T05:00:23.513Z,38.90
2023-05-06T05:02:52.917Z,39.00
2023-05-06T05:05:22.394Z,39.10
2023-05-06T05:07:51.673Z,39.10
2023-05-06T05:10:21.075Z,39.20
2023-05-06T05:12:50.385Z,39.20
2023-05-06T05:15:19.747Z,39.30
2023-05-06T05:17:49.873Z,39.40
2023-05-06T05:20:22.503Z,39.60
2023-05-06T05:22:51.864Z,39.80
2023-05-06T05:25:22.194Z,40.00
2023-05-06T05:27:51.471Z,40.10
2023-05-06T05:30:21.028Z,40.30
2023-05-06T05:32:50.607Z,40.50
2023-05-06T05:35:20.165Z,40.60
2023-05-06T05:37:52.541Z,40.60
2023-05-06T05:40:22.053Z,40.60
2023-05-06T05:42:56.391Z,40.60
2023-05-06T05:45:25.718Z,40.70
2023-05-06T05:47:55.694Z,40.80
2023-05-06T05:50:25.266Z,40.70
2023-05-06T05:52:54.645Z,40.70
2023-05-06T05:55:25.955Z,40.70
2023-05-06T05:57:55.985Z,40.70
2023-05-06T06:00:25.430Z,40.70
2023-05-06T06:02:54.669Z,40.70
2023-05-06T06:05:24.172Z,40.80
2023-05-06T06:07:53.484Z,40.90
2023-05-06T06:10:22.885Z,40.90
2023-05-06T06:12:52.272Z,40.90
2023-05-06T06:15:24.553Z,41.00
2023-05-06T06:18:10.316Z,41.10
2023-05-06T06:20:39.860Z,41.30
2023-05-06T06:23:09.429Z,41.30
2023-05-06T06:25:41.615Z,41.40
2023-05-06T06:28:11.148Z,41.40
2023-05-06T06:30:40.495Z,41.50
2023-05-06T06:33:09.797Z,41.50
2023-05-06T06:35:39.125Z,41.60
2023-05-06T06:38:08.674Z,41.60
2023-05-06T06:40:37.861Z,41.60
2023-05-06T06:45:54.610Z,41.40
2023-05-06T06:48:25.941Z,41.20
2023-05-06T06:50:55.144Z,41.20
2023-05-06T06:53:24.386Z,41.20
2023-05-06T06:55:53.662Z,41.30
2023-05-06T06:58:22.921Z,41.30
2023-05-06T07:00:52.130Z,41.40
2023-05-06T07:03:21.400Z,41.40
2023-05-06T07:05:52.036Z,41.60
2023-05-06T07:08:27.564Z,41.70
2023-05-06T07:10:57.548Z,41.80
2023-05-06T07:13:26.867Z,41.90
2023-05-06T07:15:56.124Z,42.00
2023-05-06T07:18:25.429Z,42.10
2023-05-06T07:20:54.617Z,42.20
2023-05-06T07:23:23.778Z,42.30
2023-05-06T07:25:52.909Z,42.40
2023-05-06T07:28:22.273Z,42.40
2023-05-06T07:30:52.456Z,42.40
2023-05-06T07:33:29.613Z,42.40
2023-05-06T07:35:58.833Z,42.30
2023-05-06T07:38:29.583Z,42.30
2023-05-06T07:40:58.792Z,42.20
2023-05-06T07:43:28.014Z,42.20
2023-05-06T07:46:03.577Z,42.30
2023-05-06T07:48:34.191Z,42.30
2023-05-06T07:51:05.351Z,42.40
2023-05-06T07:53:34.726Z,42.50
2023-05-06T07:56:04.914Z,42.50
2023-05-06T07:58:34.296Z,42.40
2023-05-06T08:01:04.576Z,42.40
2023-05-06T08:03:34.311Z,42.50
2023-05-06T08:06:03.930Z,42.60
2023-05-06T08:08:33.153Z,42.60
2023-05-06T08:11:02.415Z,42.60
2023-05-06T08:13:32.559Z,42.70
2023-05-06T08:16:03.279Z,42.70
2023-05-06T08:18:32.512Z,42.80
2023-05-06T08:21:01.722Z,42.80
2023-05-06T08:23:32.259Z,42.80
2023-05-06T08:26:01.636Z,42.80
2023-05-06T08:28:30.786Z,42.80
2023-05-06T08:30:59.911Z,42.80
2023-05-06T08:33:29.201Z,42.70
2023-05-06T08:36:00.243Z,42.70
2023-05-06T08:38:29.640Z,42.80
2023-05-06T08:41:04.383Z,42.70
2023-05-06T08:43:39.661Z,42.70
2023-05-06T08:46:09.467Z,42.60
2023-05-06T08:48:38.938Z,42.60
2023-05-06T08:51:09.382Z,42.60
2023-05-06T08:53:41.330Z,42.60
2023-05-06T08:56:13.412Z,42.60
2023-05-06T08:58:47.704Z,42.60
2023-05-06T09:01:17.443Z,42.60
2023-05-06T09:03:49.080Z,42.50
2023-05-06T09:06:18.350Z,42.50
2023-05-06T09:08:47.583Z,42.30
2023-05-06T09:11:32.817Z,42.30
2023-05-06T09:14:18.577Z,42.30
2023-05-06T09:16:54.683Z,42.20
2023-05-06T09:19:24.741Z,42.20
2023-05-06T09:21:54.312Z,42.20
2023-05-06T09:24:29.485Z,42.20
2023-05-06T09:27:06.799Z,42.20
2023-05-06T09:29:37.314Z,42.20
2023-05-06T09:32:12.322Z,42.10
2023-05-06T09:34:47.370Z,42.00
2023-05-06T09:37:18.845Z,42.00
2023-05-06T09:39:51.440Z,41.90
2023-05-06T09:42:21.726Z,41.80
2023-05-06T09:44:52.375Z,41.70
2023-05-06T09:47:27.314Z,41.70
2023-05-06T09:50:04.305Z,41.60
2023-05-06T09:52:34.057Z,41.60
2023-05-06T09:55:08.544Z,41.60
2023-05-06T09:57:39.801Z,41.60
2023-05-06T10:00:13.081Z,41.50
2023-05-06T10:02:49.089Z,41.60
2023-05-06T10:05:19.190Z,41.60
2023-05-06T10:07:54.401Z,41.50
2023-05-06T10:10:25.711Z,41.50
2023-05-06T10:12:55.803Z,41.50
2023-05-06T10:15:28.098Z,41.50
2023-05-06T10:17:58.599Z,41.50
2023-05-06T10:20:30.507Z,41.60
2023-05-06T10:23:12.122Z,41.60
2023-05-06T10:25:45.211Z,41.50
2023-05-06T10:28:24.952Z,41.50
2023-05-06T10:31:08.546Z,41.40
2023-05-06T10:33:38.614Z,41.30
2023-05-06T10:36:24.331Z,41.20
2023-05-06T10:39:04.427Z,41.10
2023-05-06T10:41:38.134Z,41.10
2023-05-06T10:44:08.017Z,41.00
2023-05-06T10:47:01.936Z,40.90
2023-05-06T10:49:31.232Z,40.90
2023-05-06T10:52:16.044Z,40.80
2023-05-06T10:54:53.331Z,40.70
2023-05-06T10:57:27.691Z,40.60
2023-05-06T10:59:57.011Z,40.60
2023-05-06T11:02:27.096Z,40.60
2023-05-06T11:05:03.083Z,40.40
2023-05-06T11:07:32.950Z,40.40
2023-05-06T11:10:09.045Z,40.30
2023-05-06T11:12:56.207Z,40.20
2023-05-06T11:15:41.575Z,40.10
2023-05-06T11:18:30.137Z,40.00
2023-05-06T11:21:05.290Z,39.90
2023-05-06T11:23:55.376Z,39.80
2023-05-06T11:26:26.876Z,39.70
2023-05-06T11:28:56.936Z,39.50
2023-05-06T11:31:26.958Z,39.40
2023-05-06T11:34:00.283Z,39.30
2023-05-06T11:36:30.334Z,39.20
2023-05-06T11:39:00.772Z,39.10
2023-05-06T11:41:31.097Z,39.00
2023-05-06T11:44:00.256Z,38.90
2023-05-06T11:46:34.464Z,38.80
2023-05-06T11:49:03.968Z,38.80
2023-05-06T11:51:33.552Z,38.70
2023-05-06T11:54:13.101Z,38.70
2023-05-06T11:56:53.057Z,38.60
2023-05-06T11:59:48.584Z,38.50
2023-05-06T12:02:21.332Z,38.50
2023-05-06T12:04:51.460Z,38.40
2023-05-06T12:07:20.799Z,38.30
2023-05-06T12:09:52.278Z,38.30
2023-05-06T12:12:25.342Z,38.20
2023-05-06T12:14:55.640Z,38.10
2023-05-06T12:17:25.438Z,38.10
2023-05-06T12:19:54.654Z,38.10
2023-05-06T12:22:28.537Z,38.00
2023-05-06T12:24:58.706Z,38.00
2023-05-06T12:27:35.959Z,38.00
2023-05-06T12:30:05.478Z,37.90
2023-05-06T12:32:35.255Z,37.90
2023-05-06T12:35:08.304Z,37.80
2023-05-06T12:37:39.354Z,37.80
2023-05-06T12:40:19.112Z,37.80
2023-05-06T12:42:58.634Z,37.70
2023-05-06T12:45:28.593Z,37.70
2023-05-06T12:48:10.560Z,37.70
2023-05-06T12:50:46.182Z,37.70
2023-05-06T12:53:15.415Z,37.60
2023-05-06T12:55:46.296Z,37.60
2023-05-06T12:58:20.320Z,37.60
2023-05-06T13:00:49.561Z,37.50
2023-05-06T13:03:20.351Z,37.50
2023-05-06T13:05:51.153Z,37.50
2023-05-06T13:08:20.393Z,37.50
2023-05-06T13:10:49.564Z,37.50
2023-05-06T13:13:18.729Z,37.40
2023-05-06T13:15:48.380Z,37.40
2023-05-06T13:18:17.535Z,37.40
2023-05-06T13:20:46.964Z,37.30
2023-05-06T13:23:16.230Z,37.30
2023-05-06T13:25:56.306Z,37.30
2023-05-06T13:28:34.920Z,37.20
2023-05-06T13:31:04.360Z,37.20
2023-05-06T13:33:34.404Z,37.20
2023-05-06T13:36:05.214Z,37.20
2023-05-06T13:38:35.016Z,37.10
2023-05-06T13:41:04.367Z,37.10
2023-05-06T13:43:33.665Z,37.10
2023-05-06T13:46:03.052Z,37.00
2023-05-06T13:48:32.511Z,37.00
2023-05-06T13:51:01.899Z,36.90
2023-05-06T13:53:31.177Z,36.90
2023-05-06T13:56:00.482Z,36.90
2023-05-06T13:58:29.772Z,36.90
2023-05-06T14:00:59.116Z,36.80
2023-05-06T14:03:28.533Z,36.80
2023-05-06T14:05:57.834Z,36.70
2023-05-06T14:08:27.199Z,36.70
2023-05-06T14:10:56.554Z,36.70
2023-05-06T14:13:25.949Z,36.70
2023-05-06T14:15:56.939Z,36.60
2023-05-06T14:18:27.944Z,36.60
2023-05-06T14:20:57.534Z,36.50
2023-05-06T14:23:27.062Z,36.50
2023-05-06T14:25:56.670Z,36.50
2023-05-06T14:28:25.902Z,36.40
2023-05-06T14:30:55.652Z,36.40
2023-05-06T14:33:24.991Z,36.30
2023-05-06T14:35:54.207Z,36.30
2023-05-06T14:38:23.803Z,36.30
2023-05-06T14:40:53.218Z,36.30
2023-05-06T14:43:22.557Z,36.30
2023-05-06T14:45:51.802Z,36.20
2023-05-06T14:48:21.268Z,36.20
2023-05-06T14:50:50.506Z,36.20
2023-05-06T14:53:19.788Z,36.20
2023-05-06T14:55:49.893Z,36.10
2023-05-06T14:58:19.136Z,36.10
2023-05-06T15:00:48.395Z,36.00
2023-05-06T15:03:17.623Z,36.00
2023-05-06T15:05:46.909Z,36.00
2023-05-06T15:08:16.250Z,35.90
2023-05-06T15:10:45.599Z,35.90
2023-05-06T15:13:14.830Z,35.90
2023-05-06T15:15:44.757Z,35.90
2023-05-06T15:18:14.273Z,35.80
2023-05-06T15:23:30.777Z,35.80
2023-05-06T15:26:16.625Z,35.70
2023-05-06T15:31:40.136Z,35.70
2023-05-06T15:34:11.663Z,35.60
2023-05-06T15:39:29.320Z,35.50
2023-05-06T15:42:00.866Z,35.50
2023-05-06T15:44:31.895Z,35.50
2023-05-06T15:47:01.285Z,35.40
2023-05-06T15:52:04.224Z,35.40
2023-05-06T15:54:34.797Z,35.40
2023-05-06T15:57:07.145Z,35.30
2023-05-06T15:59:36.690Z,35.30
2023-05-06T16:04:38.562Z,35.20
2023-05-06T16:07:08.597Z,35.20
2023-05-06T16:09:38.132Z,35.10
2023-05-06T16:12:07.823Z,35.10
2023-05-06T16:14:37.123Z,35.10
2023-05-06T16:17:06.437Z,35.10
2023-05-06T16:19:36.101Z,35.00
2023-05-06T16:22:05.555Z,35.00
2023-05-06T16:24:34.766Z,35.00
2023-05-06T16:27:03.950Z,34.90
2023-05-06T16:29:33.342Z,34.90
2023-05-06T16:32:02.984Z,34.90
2023-05-06T16:34:32.204Z,34.90
2023-05-06T16:37:01.855Z,34.90
2023-05-06T16:39:31.105Z,34.80
2023-05-06T16:42:00.296Z,34.80
2023-05-06T16:44:32.610Z,34.80
2023-05-06T16:49:49.081Z,34.70
2023-05-06T17:00:33.051Z,34.60
2023-05-06T17:05:49.441Z,34.60
2023-05-06T17:08:19.539Z,34.60
2023-05-06T17:10:49.082Z,34.50
2023-05-06T17:13:18.465Z,34.50
2023-05-06T17:15:47.649Z,34.50
2023-05-06T17:18:16.777Z,34.50
2023-05-06T17:20:55.144Z,34.40
2023-05-06T17:23:26.395Z,34.40
2023-05-06T17:25:58.242Z,34.40
2023-05-06T17:28:30.320Z,34.40
2023-05-06T17:30:59.512Z,34.40
2023-05-06T17:33:28.647Z,34.40
2023-05-06T17:35:57.784Z,34.30
2023-05-06T17:38:27.094Z,34.30
2023-05-06T17:40:56.308Z,34.30
2023-05-06T17:43:30.696Z,34.30
2023-05-06T17:46:00.407Z,34.20
2023-05-06T17:48:29.589Z,34.20
2023-05-06T17:56:29.812Z,34.20
2023-05-06T17:59:03.366Z,34.10
2023-05-06T18:01:33.205Z,34.10
2023-05-06T18:04:02.500Z,34.00
2023-05-06T18:06:32.097Z,34.00
2023-05-06T18:09:07.835Z,34.00
2023-05-06T18:11:38.511Z,33.90
2023-05-06T18:14:19.086Z,33.90
2023-05-06T18:19:42.913Z,33.80
2023-05-06T18:22:12.864Z,33.80
2023-05-06T18:24:42.029Z,33.80
2023-05-06T18:27:11.171Z,33.80
2023-05-06T18:29:40.878Z,33.70
2023-05-06T18:32:10.081Z,33.70
2023-05-06T18:34:39.325Z,33.70
2023-05-06T18:37:08.939Z,33.60
2023-05-06T18:39:43.769Z,33.60
2023-05-06T18:44:58.861Z,33.60
2023-05-06T18:47:28.672Z,33.60
2023-05-06T18:50:01.071Z,33.60
2023-05-06T18:52:30.333Z,33.60
2023-05-06T18:54:59.511Z,33.60
2023-05-06T18:57:29.255Z,33.50
2023-05-06T18:59:58.724Z,33.50
2023-05-06T19:02:28.128Z,33.50
2023-05-06T19:04:57.603Z,33.50
2023-05-06T19:07:27.097Z,33.40
2023-05-06T19:09:56.213Z,33.40
2023-05-06T19:12:25.359Z,33.40
2023-05-06T19:14:54.948Z,33.40
2023-05-06T19:17:24.555Z,33.40
2023-05-06T19:19:53.977Z,33.40
2023-05-06T19:22:23.225Z,33.40
2023-05-06T19:24:53.199Z,33.30
2023-05-06T19:27:22.436Z,33.30
2023-05-06T19:29:52.311Z,33.30
2023-05-06T19:32:24.160Z,33.30
2023-05-06T19:34:53.455Z,33.30
2023-05-06T19:37:22.909Z,33.30
2023-05-06T19:39:52.032Z,33.30
2023-05-06T19:42:21.232Z,33.20
2023-05-06T19:44:50.792Z,33.20
2023-05-06T19:47:19.942Z,33.20
2023-05-06T19:49:49.772Z,33.20
2023-05-06T19:52:34.866Z,33.10
2023-05-06T19:55:16.577Z,33.10
2023-05-06T20:00:30.149Z,33.10
2023-05-06T20:03:01.848Z,33.10
2023-05-06T20:05:32.385Z,33.10
2023-05-06T20:08:01.708Z,33.10
2023-05-06T20:10:31.830Z,33.10
2023-05-06T20:13:01.027Z,33.00
2023-05-06T20:15:30.896Z,33.00
2023-05-06T20:18:00.140Z,33.00
2023-05-06T20:20:35.036Z,32.90
2023-05-06T20:23:04.963Z,32.90
2023-05-06T20:28:21.798Z,32.90
2023-05-06T20:30:52.344Z,32.90
2023-05-06T20:33:21.594Z,32.80
2023-05-06T20:36:08.964Z,32.80
2023-05-06T20:38:44.358Z,32.80
2023-05-06T20:41:14.446Z,32.80
2023-05-06T20:46:41.496Z,32.80
2023-05-06T20:49:10.839Z,32.80
2023-05-06T20:51:40.153Z,32.70
2023-05-06T20:54:09.524Z,32.70
2023-05-06T20:56:38.809Z,32.70
2023-05-06T20:59:08.082Z,32.70
2023-05-06T21:01:37.497Z,32.70
2023-05-06T21:04:07.296Z,32.60
2023-05-06T21:06:36.510Z,32.60
2023-05-06T21:09:05.888Z,32.60
2023-05-06T21:11:35.216Z,32.60
2023-05-06T21:14:04.430Z,32.60
2023-05-06T21:16:33.672Z,32.60
2023-05-06T21:19:02.930Z,32.60
2023-05-06T21:21:33.451Z,32.50
2023-05-06T21:24:03.130Z,32.50
2023-05-06T21:26:34.202Z,32.50
2023-05-06T21:29:03.502Z,32.50
2023-05-06T21:31:32.791Z,32.50
2023-05-06T21:34:02.264Z,32.40
2023-05-06T21:36:32.176Z,32.40
2023-05-06T21:39:15.917Z,32.40
2023-05-06T21:41:46.286Z,32.40
2023-05-06T21:44:21.723Z,32.40
2023-05-06T21:46:51.299Z,32.30
2023-05-06T21:49:22.891Z,32.30
2023-05-06T21:51:52.261Z,32.30
2023-05-06T21:54:22.030Z,32.30
2023-05-06T21:56:51.273Z,32.30
2023-05-06T21:59:20.705Z,32.30
2023-05-06T22:01:49.986Z,32.30
2023-05-06T22:04:21.008Z,32.30
2023-05-06T22:06:50.339Z,32.30
2023-05-06T22:09:21.336Z,32.30
2023-05-06T22:11:51.374Z,32.20
2023-05-06T22:17:10.319Z,32.20
2023-05-06T22:19:49.922Z,32.20
2023-05-06T22:22:19.621Z,32.20
2023-05-06T22:24:49.592Z,32.20
2023-05-06T22:27:18.828Z,32.20
2023-05-06T22:29:48.100Z,32.10
2023-05-06T22:32:17.393Z,32.10
2023-05-06T22:34:46.642Z,32.10
2023-05-06T22:37:16.412Z,32.10
2023-05-06T22:39:45.767Z,32.10
2023-05-06T22:42:15.124Z,32.10
2023-05-06T22:44:44.653Z,32.10
2023-05-06T22:47:13.909Z,32.10
2023-05-06T22:49:43.488Z,32.00
2023-05-06T22:52:14.116Z,32.00
2023-05-06T22:54:43.357Z,32.00
2023-05-06T22:57:12.741Z,32.00
2023-05-06T22:59:42.054Z,32.00
2023-05-06T23:02:11.304Z,32.00
2023-05-06T23:04:41.408Z,32.00
2023-05-06T23:07:10.626Z,32.00
2023-05-06T23:09:39.881Z,32.00
2023-05-06T23:12:09.262Z,32.00
2023-05-06T23:14:38.513Z,32.00
2023-05-06T23:17:08.179Z,32.00
2023-05-06T23:19:37.522Z,32.00
2023-05-06T23:22:06.792Z,32.00
2023-05-06T23:24:36.086Z,32.00
2023-05-06T23:27:05.495Z,32.00
2023-05-06T23:29:34.897Z,32.00
2023-05-06T23:32:04.454Z,32.00
2023-05-06T23:34:33.975Z,32.00
2023-05-06T23:42:30.211Z,32.10
2023-05-06T23:45:01.074Z,32.10
2023-05-06T23:47:30.341Z,32.10
2023-05-06T23:49:59.890Z,32.10
2023-05-06T23:52:29.236Z,32.10
2023-05-06T23:54:58.469Z,32.10
2023-05-06T23:57:27.682Z,32.10
2023-05-06T23:59:58.771Z,32.10
